createdAt,value
2018-08-04T00:01:52.123Z,0.70
2018-08-04T00:04:24.983Z,0.70
2018-08-04T00:06:57.826Z,0.50
2018-08-04T00:09:31.436Z,0.60
2018-08-04T00:12:04.648Z,0.73
2018-08-04T00:14:37.912Z,0.70
2018-08-04T00:17:10.778Z,0.70
2018-08-04T00:19:43.580Z,0.70
2018-08-04T00:22:16.352Z,0.70
2018-08-04T00:24:49.167Z,0.90
2018-08-04T00:27:21.956Z,0.90
2018-08-04T00:29:54.744Z,1.00
2018-08-04T00:32:27.545Z,1.03
2018-08-04T00:35:00.382Z,0.90
2018-08-04T00:37:33.237Z,0.90
2018-08-04T00:40:06.074Z,0.70
2018-08-04T00:42:38.862Z,1.07
2018-08-04T00:45:11.772Z,0.70
2018-08-04T00:47:44.554Z,0.70
2018-08-04T00:50:17.294Z,0.80
2018-08-04T00:52:50.116Z,0.80
2018-08-04T00:55:22.907Z,0.60
2018-08-04T00:57:55.711Z,0.87
2018-08-04T01:00:28.548Z,1.40
2018-08-04T01:03:01.286Z,0.70
2018-08-04T01:05:35.184Z,0.90
2018-08-04T01:08:07.968Z,0.97
2018-08-04T01:10:41.517Z,1.10
2018-08-04T01:13:14.976Z,0.90
2018-08-04T01:15:47.903Z,1.00
2018-08-04T01:18:21.449Z,1.10
2018-08-04T01:20:54.899Z,1.10
2018-08-04T01:23:28.867Z,1.20
2018-08-04T01:26:01.895Z,1.00
2018-08-04T01:28:34.720Z,1.00
2018-08-04T01:31:07.524Z,1.10
2018-08-04T01:33:40.331Z,1.03
2018-08-04T01:36:13.089Z,0.80
2018-08-04T01:38:45.931Z,1.10
2018-08-04T01:41:18.777Z,1.00
2018-08-04T01:43:51.524Z,1.40
2018-08-04T01:46:24.298Z,1.30
2018-08-04T01:48:57.715Z,1.20
2018-08-04T01:51:30.504Z,1.40
2018-08-04T01:54:03.314Z,1.00
2018-08-04T01:56:36.113Z,1.07
2018-08-04T01:59:08.908Z,1.20
2018-08-04T02:01:41.698Z,1.10
2018-08-04T02:04:14.482Z,1.17
2018-08-04T02:06:47.281Z,1.33
2018-08-04T02:09:20.018Z,1.10
2018-08-04T02:11:52.777Z,1.30
2018-08-04T02:14:25.548Z,1.17
2018-08-04T02:16:59.949Z,1.17
2018-08-04T02:19:32.717Z,1.03
2018-08-04T02:22:05.481Z,1.10
2018-08-04T02:24:38.204Z,1.07
2018-08-04T02:27:11.861Z,1.40
2018-08-04T02:29:45.805Z,1.30
2018-08-04T02:32:19.107Z,1.30
2018-08-04T02:34:51.842Z,1.50
2018-08-04T02:37:24.557Z,1.40
2018-08-04T02:39:57.742Z,1.10
2018-08-04T02:42:30.484Z,1.50
2018-08-04T02:45:03.244Z,1.63
2018-08-04T02:47:36.080Z,1.50
2018-08-04T02:50:09.824Z,1.10
2018-08-04T02:52:42.599Z,1.10
2018-08-04T02:55:15.341Z,1.40
2018-08-04T02:57:48.130Z,1.23
2018-08-04T03:00:20.921Z,1.50
2018-08-04T03:02:53.724Z,1.37
2018-08-04T03:05:26.528Z,1.50
2018-08-04T03:07:59.373Z,1.37
2018-08-04T03:10:32.177Z,1.30
2018-08-04T03:13:04.942Z,1.47
2018-08-04T03:15:37.759Z,1.47
2018-08-04T03:18:10.610Z,1.50
2018-08-04T03:20:43.390Z,1.33
2018-08-04T03:23:16.242Z,1.40
2018-08-04T03:25:49.137Z,1.40
2018-08-04T03:28:22.327Z,1.30
2018-08-04T03:30:55.145Z,1.20
2018-08-04T03:33:27.973Z,1.17
2018-08-04T03:36:00.816Z,1.10
2018-08-04T03:38:33.659Z,1.13
2018-08-04T03:41:07.588Z,1.37
2018-08-04T03:43:40.552Z,1.20
2018-08-04T03:46:13.336Z,1.40
2018-08-04T03:48:47.206Z,1.23
2018-08-04T03:52:52.027Z,1.30
2018-08-04T03:59:47.983Z,1.60
2018-08-04T04:02:20.933Z,1.20
2018-08-04T04:04:54.336Z,1.50
2018-08-04T04:07:54.604Z,1.30
2018-08-04T04:10:27.400Z,1.60
2018-08-04T04:13:00.184Z,1.73
2018-08-04T04:15:33.054Z,1.50
2018-08-04T04:18:05.911Z,1.60
2018-08-04T04:20:39.535Z,1.47
2018-08-04T04:23:12.263Z,1.80
2018-08-04T04:25:46.011Z,1.60
2018-08-04T04:28:18.809Z,1.70
2018-08-04T04:30:51.581Z,1.70
2018-08-04T04:33:24.820Z,2.00
2018-08-04T04:35:57.790Z,1.80
2018-08-04T04:38:30.483Z,1.73
2018-08-04T04:41:03.963Z,1.60
2018-08-04T04:43:36.815Z,1.40
2018-08-04T04:46:09.649Z,1.80
2018-08-04T04:48:42.388Z,1.97
2018-08-04T04:54:44.245Z,2.00
2018-08-04T04:57:19.958Z,2.40
2018-08-04T05:10:07.189Z,2.00
2018-08-04T05:12:40.371Z,1.70
2018-08-04T05:15:13.311Z,2.40
2018-08-04T05:17:46.183Z,1.90
2018-08-04T05:20:19.143Z,2.43
2018-08-04T05:22:52.246Z,2.10
2018-08-04T05:25:25.169Z,2.60
2018-08-04T05:27:59.080Z,2.80
2018-08-04T05:30:32.075Z,2.90
2018-08-04T05:33:05.013Z,2.20
2018-08-04T05:35:37.906Z,2.03
2018-08-04T05:38:10.980Z,1.77
2018-08-04T05:40:44.031Z,1.97
2018-08-04T05:43:17.110Z,2.07
2018-08-04T05:45:50.105Z,1.90
2018-08-04T05:48:22.978Z,2.30
2018-08-04T05:50:56.152Z,2.07
2018-08-04T05:53:29.088Z,1.90
2018-08-04T05:56:01.960Z,2.00
2018-08-04T05:58:34.733Z,1.80
2018-08-04T06:01:07.729Z,1.77
2018-08-04T06:03:40.933Z,2.20
2018-08-04T06:06:13.811Z,2.10
2018-08-04T06:08:46.816Z,2.30
2018-08-04T06:11:19.773Z,2.00
2018-08-04T06:13:52.906Z,2.43
2018-08-04T06:16:26.082Z,2.20
2018-08-04T06:18:58.999Z,2.10
2018-08-04T06:21:31.848Z,2.20
2018-08-04T06:24:04.855Z,2.20
2018-08-04T06:26:37.851Z,2.77
2018-08-04T06:29:11.166Z,2.57
2018-08-04T06:31:44.105Z,2.17
2018-08-04T06:34:16.921Z,2.87
2018-08-04T06:36:49.875Z,2.47
2018-08-04T06:39:22.710Z,2.23
2018-08-04T06:41:55.588Z,2.43
2018-08-04T06:44:28.503Z,2.33
2018-08-04T06:47:01.340Z,2.20
2018-08-04T06:49:34.256Z,2.57
2018-08-04T06:52:07.303Z,2.77
2018-08-04T06:54:40.123Z,2.00
2018-08-04T06:57:12.957Z,2.33
2018-08-04T06:59:45.736Z,2.33
2018-08-04T07:02:18.608Z,2.40
2018-08-04T07:04:51.499Z,2.57
2018-08-04T07:07:24.507Z,2.30
2018-08-04T07:09:57.497Z,2.30
2018-08-04T07:12:30.403Z,2.50
2018-08-04T07:15:03.220Z,2.23
2018-08-04T07:17:36.117Z,2.50
2018-08-04T07:20:09.099Z,2.37
2018-08-04T07:22:41.937Z,2.73
2018-08-04T07:25:14.792Z,2.50
2018-08-04T07:27:47.652Z,2.80
2018-08-04T07:30:20.492Z,2.80
2018-08-04T07:32:53.338Z,2.70
2018-08-04T07:35:26.208Z,2.10
2018-08-04T07:37:59.121Z,2.63
2018-08-04T07:40:31.976Z,2.47
2018-08-04T07:43:04.812Z,2.43
2018-08-04T15:36:27.508Z,3.83
2018-08-04T15:39:00.167Z,4.00
2018-08-04T15:41:37.494Z,3.60
2018-08-04T15:44:10.357Z,3.97
2018-08-04T15:46:43.243Z,3.60
2018-08-04T15:49:17.725Z,4.30
2018-08-04T15:51:50.591Z,3.90
2018-08-04T15:54:24.658Z,3.60
2018-08-04T15:56:58.683Z,3.40
2018-08-04T15:59:33.132Z,3.83
2018-08-04T16:02:06.464Z,3.90
2018-08-04T16:04:39.433Z,4.20
2018-08-04T16:07:12.382Z,3.43
2018-08-04T16:09:46.083Z,3.00
2018-08-04T16:12:19.963Z,3.30
2018-08-04T16:14:52.764Z,3.37
2018-08-04T16:17:25.601Z,3.33
2018-08-04T16:19:58.618Z,3.03
2018-08-04T16:22:31.512Z,3.00
2018-08-04T16:25:05.228Z,2.80
2018-08-04T16:27:38.078Z,3.03
2018-08-04T16:30:11.820Z,2.90
2018-08-04T16:32:44.600Z,2.70
2018-08-04T16:35:19.343Z,2.60
2018-08-04T16:37:52.987Z,2.60
2018-08-04T16:40:25.809Z,2.47
2018-08-04T16:42:58.683Z,2.20
2018-08-04T16:45:31.532Z,2.67
2018-08-04T16:48:04.387Z,2.27
2018-08-04T16:50:37.193Z,2.23
2018-08-04T16:53:10.309Z,2.37
2018-08-04T16:55:43.174Z,2.33
2018-08-04T16:58:16.039Z,2.40
2018-08-04T17:00:49.969Z,2.10
2018-08-04T17:03:23.973Z,2.30
2018-08-04T17:05:57.261Z,2.27
2018-08-04T17:08:33.798Z,2.20
2018-08-04T17:11:09.641Z,2.30
2018-08-04T17:13:42.532Z,2.23
2018-08-04T17:16:29.289Z,2.20
2018-08-04T17:19:02.361Z,2.50
2018-08-04T17:21:36.249Z,2.23
2018-08-04T17:24:09.125Z,2.40
2018-08-04T17:26:42.423Z,2.57
2018-08-04T17:29:15.940Z,2.10
2018-08-04T17:31:48.959Z,2.50
2018-08-04T17:34:22.107Z,2.33
2018-08-04T17:36:56.205Z,2.10
2018-08-04T17:39:44.317Z,2.30
2018-08-04T17:42:30.479Z,2.20
2018-08-04T17:45:06.253Z,2.27
2018-08-04T17:47:39.094Z,3.33
2018-08-04T17:50:11.974Z,3.10
2018-08-04T17:52:45.408Z,2.50
2018-08-04T17:55:18.502Z,2.17
2018-08-04T17:57:51.507Z,2.03
2018-08-04T18:00:24.358Z,2.00
2018-08-04T18:02:57.749Z,2.30
2018-08-04T18:05:32.043Z,2.30
2018-08-04T18:08:04.854Z,2.03
2018-08-04T18:10:39.765Z,2.30
2018-08-04T18:13:12.623Z,2.00
2018-08-04T18:15:47.718Z,2.10
2018-08-04T18:18:20.545Z,2.20
2018-08-04T18:20:53.415Z,2.03
2018-08-04T18:23:26.266Z,1.80
2018-08-04T18:25:59.055Z,2.13
2018-08-04T18:28:31.875Z,2.30
2018-08-04T18:31:04.723Z,2.03
2018-08-04T18:33:37.546Z,1.80
2018-08-04T18:36:10.350Z,1.87
2018-08-04T18:38:43.173Z,2.20
2018-08-04T18:41:16.078Z,1.97
2018-08-04T18:43:49.386Z,2.90
2018-08-04T18:46:22.230Z,2.10
2018-08-04T18:48:55.112Z,2.10
2018-08-04T18:51:28.089Z,2.30
2018-08-04T18:54:01.089Z,2.03
2018-08-04T18:56:33.936Z,1.90
2018-08-04T18:59:07.497Z,2.20
2018-08-04T19:01:40.762Z,2.07
2018-08-04T19:04:13.691Z,1.67
2018-08-04T19:06:50.147Z,2.10
2018-08-04T19:09:22.989Z,1.93
2018-08-04T19:11:57.742Z,2.20
2018-08-04T19:14:30.770Z,2.20
2018-08-04T19:17:03.860Z,2.00
2018-08-04T19:19:36.800Z,2.00
2018-08-04T19:22:09.666Z,2.20
2018-08-04T19:24:42.513Z,1.97
2018-08-04T19:27:15.315Z,1.93
2018-08-04T19:29:48.158Z,2.10
2018-08-04T19:32:21.025Z,1.70
2018-08-04T19:34:53.876Z,1.90
2018-08-04T19:37:26.675Z,2.00
2018-08-04T19:40:00.289Z,1.90
2018-08-04T19:42:33.188Z,2.20
2018-08-04T19:45:05.971Z,2.10
2018-08-04T19:47:38.790Z,1.90
2018-08-04T19:50:11.602Z,1.80
2018-08-04T19:52:44.462Z,2.00
2018-08-04T19:55:17.246Z,2.03
2018-08-04T19:57:50.006Z,1.90
2018-08-04T20:00:24.373Z,1.90
2018-08-04T20:02:58.224Z,2.13
2018-08-04T20:05:31.080Z,1.87
2018-08-04T20:08:03.963Z,1.90
2018-08-04T20:10:37.059Z,2.00
2018-08-04T20:13:10.749Z,1.80
2018-08-04T20:15:43.606Z,1.93
2018-08-04T20:18:16.412Z,2.00
2018-08-04T20:20:50.164Z,2.13
2018-08-04T20:23:23.113Z,2.17
2018-08-04T20:25:56.002Z,2.00
2018-08-04T20:28:28.822Z,2.10
2018-08-04T20:31:01.685Z,2.00
2018-08-04T20:33:34.499Z,2.10
2018-08-04T20:36:07.369Z,1.80
2018-08-04T20:38:40.609Z,2.00
2018-08-04T20:41:13.384Z,2.03
2018-08-04T20:43:46.201Z,2.10
2018-08-04T20:46:19.187Z,2.10
2018-08-04T20:48:52.061Z,2.10
2018-08-04T20:51:24.901Z,2.00
2018-08-04T20:53:58.282Z,1.87
2018-08-04T20:56:31.347Z,2.10
2018-08-04T20:59:04.205Z,2.10
2018-08-04T21:01:41.207Z,2.37
2018-08-04T21:04:15.822Z,1.90
2018-08-04T21:06:48.974Z,2.30
2018-08-04T21:09:21.963Z,1.70
2018-08-04T21:11:56.505Z,2.20
2018-08-04T21:14:31.771Z,2.03
2018-08-04T21:17:04.621Z,1.87
2018-08-04T21:19:37.485Z,2.40
2018-08-04T21:22:10.689Z,1.90
2018-08-04T21:24:43.630Z,2.00
2018-08-04T21:27:16.527Z,2.40
2018-08-04T21:29:49.482Z,2.43
2018-08-04T21:32:22.448Z,2.10
2018-08-04T21:34:55.999Z,2.07
2018-08-04T21:37:28.830Z,2.50
2018-08-04T21:40:01.691Z,2.40
2018-08-04T21:42:34.884Z,2.13
2018-08-04T21:45:07.933Z,2.13
2018-08-04T21:47:42.227Z,1.90
2018-08-04T21:50:15.066Z,2.23
2018-08-04T21:52:48.383Z,2.20
2018-08-04T21:55:22.340Z,2.20
2018-08-04T21:57:55.793Z,3.43
2018-08-04T22:00:28.666Z,2.10
2018-08-04T22:03:03.502Z,2.73
2018-08-04T22:05:36.387Z,2.30
2018-08-04T22:08:18.289Z,2.07
2018-08-04T22:10:51.306Z,2.33
2018-08-04T22:13:24.123Z,2.10
2018-08-04T22:15:56.951Z,2.43
2018-08-04T22:18:32.276Z,2.53
2018-08-04T22:21:05.109Z,2.10
2018-08-04T22:23:38.910Z,2.50
2018-08-04T22:26:11.762Z,2.50
2018-08-04T22:28:44.592Z,2.23
2018-08-04T22:31:17.489Z,2.30
2018-08-04T22:33:50.294Z,2.20
2018-08-04T22:36:25.027Z,2.20
2018-08-04T22:38:58.660Z,2.13
2018-08-04T22:41:31.933Z,2.20
2018-08-04T22:44:05.858Z,2.37
2018-08-04T22:46:38.636Z,2.30
2018-08-04T22:49:11.506Z,2.00
2018-08-04T22:51:44.290Z,2.43
2018-08-04T22:54:17.257Z,2.07
2018-08-04T22:56:52.429Z,2.30
2018-08-04T22:59:25.209Z,2.20
2018-08-04T23:01:58.148Z,2.10
2018-08-04T23:04:30.961Z,2.20
2018-08-04T23:07:04.970Z,2.30
2018-08-04T23:09:40.188Z,2.27
2018-08-04T23:12:13.118Z,1.80
2018-08-04T23:14:46.024Z,2.40
2018-08-04T23:17:18.924Z,2.37
2018-08-04T23:19:52.579Z,2.40
2018-08-04T23:22:25.387Z,1.90
2018-08-04T23:24:58.236Z,2.27
2018-08-04T23:27:31.110Z,2.17
2018-08-04T23:30:03.985Z,1.90
2018-08-04T23:32:38.355Z,1.93
2018-08-04T23:35:13.664Z,2.00
2018-08-04T23:37:47.189Z,1.90
2018-08-04T23:40:20.206Z,2.40
2018-08-04T23:42:53.215Z,2.00
2018-08-04T23:45:26.130Z,2.20
2018-08-04T23:47:59.016Z,2.00
2018-08-04T23:50:41.182Z,2.07
2018-08-04T23:53:14.178Z,1.97
2018-08-04T23:55:47.110Z,2.13
2018-08-04T23:58:19.938Z,2.20
